<?xml version="1.0" encoding="UTF-8" standalone="no" ?>
<gpx xmlns="http://www.topografix.com/GPX/1/1" xmlns:xsi="http://www.w3.org/2001/XMLSchema-instance" xsi:schemaLocation="http://www.topografix.com/GPX/1/1 http://www.topografix.com/GPX/1/1/gpx.xsd" version="1.1" creator="VisuGPX - https://www.visugpx.com">
  <metadata>
    <name>LONGUESSE </name>
    <desc><![CDATA[FAIT]]></desc>
  </metadata>
  <trk>
    <name><![CDATA[LONGUESSE -12845453]]></name>
    <trkseg>
      <trkpt lat="49.0349" lon="1.86453">
        <ele>39</ele>
        <time>2023-01-10T08:15:06Z</time>
      </trkpt>
      <trkpt lat="49.03486" lon="1.86493">
        <ele>38</ele>
        <time>2023-01-10T08:15:41Z</time>
      </trkpt>
      <trkpt lat="49.0348" lon="1.86526">
        <ele>38</ele>
        <time>2023-01-10T08:16:11Z</time>
      </trkpt>
      <trkpt lat="49.03447" lon="1.86546">
        <ele>38</ele>
        <time>2023-01-10T08:16:59Z</time>
      </trkpt>
      <trkpt lat="49.03411" lon="1.86519">
        <ele>39</ele>
        <time>2023-01-10T08:17:52Z</time>
      </trkpt>
      <trkpt lat="49.03367" lon="1.86488">
        <ele>46</ele>
        <time>2023-01-10T08:18:57Z</time>
      </trkpt>
      <trkpt lat="49.03316" lon="1.86462">
        <ele>53</ele>
        <time>2023-01-10T08:20:09Z</time>
      </trkpt>
      <trkpt lat="49.0328" lon="1.86428">
        <ele>58</ele>
        <time>2023-01-10T08:21:05Z</time>
      </trkpt>
      <trkpt lat="49.03254" lon="1.86392">
        <ele>61</ele>
        <time>2023-01-10T08:21:52Z</time>
      </trkpt>
      <trkpt lat="49.03232" lon="1.86352">
        <ele>62</ele>
        <time>2023-01-10T08:22:38Z</time>
      </trkpt>
      <trkpt lat="49.0321" lon="1.86308">
        <ele>63</ele>
        <time>2023-01-10T08:23:26Z</time>
      </trkpt>
      <trkpt lat="49.03202" lon="1.8627">
        <ele>65</ele>
        <time>2023-01-10T08:24:01Z</time>
      </trkpt>
      <trkpt lat="49.03202" lon="1.86233">
        <ele>66</ele>
        <time>2023-01-10T08:24:33Z</time>
      </trkpt>
      <trkpt lat="49.03209" lon="1.86168">
        <ele>67</ele>
        <time>2023-01-10T08:25:31Z</time>
      </trkpt>
      <trkpt lat="49.03215" lon="1.86092">
        <ele>72</ele>
        <time>2023-01-10T08:26:38Z</time>
      </trkpt>
      <trkpt lat="49.03228" lon="1.85998">
        <ele>77</ele>
        <time>2023-01-10T08:28:02Z</time>
      </trkpt>
      <trkpt lat="49.03236" lon="1.85903">
        <ele>79</ele>
        <time>2023-01-10T08:29:26Z</time>
      </trkpt>
      <trkpt lat="49.0324" lon="1.85831">
        <ele>80</ele>
        <time>2023-01-10T08:30:29Z</time>
      </trkpt>
      <trkpt lat="49.03236" lon="1.85746">
        <ele>81</ele>
        <time>2023-01-10T08:31:44Z</time>
      </trkpt>
      <trkpt lat="49.03237" lon="1.85663">
        <ele>81</ele>
        <time>2023-01-10T08:32:56Z</time>
      </trkpt>
      <trkpt lat="49.03244" lon="1.85545">
        <ele>82</ele>
        <time>2023-01-10T08:34:40Z</time>
      </trkpt>
      <trkpt lat="49.03258" lon="1.85477">
        <ele>83</ele>
        <time>2023-01-10T08:35:42Z</time>
      </trkpt>
      <trkpt lat="49.03291" lon="1.85354">
        <ele>83</ele>
        <time>2023-01-10T08:37:39Z</time>
      </trkpt>
      <trkpt lat="49.03315" lon="1.85244">
        <ele>83</ele>
        <time>2023-01-10T08:39:20Z</time>
      </trkpt>
      <trkpt lat="49.03321" lon="1.85193">
        <ele>84</ele>
        <time>2023-01-10T08:40:05Z</time>
      </trkpt>
      <trkpt lat="49.03371" lon="1.85128">
        <ele>81</ele>
        <time>2023-01-10T08:41:33Z</time>
      </trkpt>
      <trkpt lat="49.03404" lon="1.85071">
        <ele>79</ele>
        <time>2023-01-10T08:42:40Z</time>
      </trkpt>
      <trkpt lat="49.03506" lon="1.84991">
        <ele>66</ele>
        <time>2023-01-10T08:45:13Z</time>
      </trkpt>
      <trkpt lat="49.0353" lon="1.84959">
        <ele>63</ele>
        <time>2023-01-10T08:45:55Z</time>
      </trkpt>
      <trkpt lat="49.03571" lon="1.84901">
        <ele>58</ele>
        <time>2023-01-10T08:47:10Z</time>
      </trkpt>
      <trkpt lat="49.03619" lon="1.84829">
        <ele>57</ele>
        <time>2023-01-10T08:48:40Z</time>
      </trkpt>
      <trkpt lat="49.0365" lon="1.84771">
        <ele>56</ele>
        <time>2023-01-10T08:49:45Z</time>
      </trkpt>
      <trkpt lat="49.03702" lon="1.84514">
        <ele>57</ele>
        <time>2023-01-10T08:53:40Z</time>
      </trkpt>
      <trkpt lat="49.03701" lon="1.84432">
        <ele>59</ele>
        <time>2023-01-10T08:54:52Z</time>
      </trkpt>
      <trkpt lat="49.03683" lon="1.84374">
        <ele>62</ele>
        <time>2023-01-10T08:55:48Z</time>
      </trkpt>
      <trkpt lat="49.03701" lon="1.84244">
        <ele>66</ele>
        <time>2023-01-10T08:57:45Z</time>
      </trkpt>
      <trkpt lat="49.03695" lon="1.84122">
        <ele>69</ele>
        <time>2023-01-10T08:59:32Z</time>
      </trkpt>
      <trkpt lat="49.03695" lon="1.83892">
        <ele>69</ele>
        <time>2023-01-10T09:02:53Z</time>
      </trkpt>
      <trkpt lat="49.03735" lon="1.83558">
        <ele>73</ele>
        <time>2023-01-10T09:07:50Z</time>
      </trkpt>
      <trkpt lat="49.03777" lon="1.83352">
        <ele>74</ele>
        <time>2023-01-10T09:10:59Z</time>
      </trkpt>
      <trkpt lat="49.03852" lon="1.83361">
        <ele>71</ele>
        <time>2023-01-10T09:12:39Z</time>
      </trkpt>
      <trkpt lat="49.03848" lon="1.83285">
        <ele>72</ele>
        <time>2023-01-10T09:13:46Z</time>
      </trkpt>
      <trkpt lat="49.03839" lon="1.83274">
        <ele>72</ele>
        <time>2023-01-10T09:14:01Z</time>
      </trkpt>
      <trkpt lat="49.03837" lon="1.83247">
        <ele>72</ele>
        <time>2023-01-10T09:14:25Z</time>
      </trkpt>
      <trkpt lat="49.03856" lon="1.83171">
        <ele>71</ele>
        <time>2023-01-10T09:15:36Z</time>
      </trkpt>
      <trkpt lat="49.03883" lon="1.83081">
        <ele>72</ele>
        <time>2023-01-10T09:17:03Z</time>
      </trkpt>
      <trkpt lat="49.03904" lon="1.83039">
        <ele>72</ele>
        <time>2023-01-10T09:17:49Z</time>
      </trkpt>
      <trkpt lat="49.03911" lon="1.82967">
        <ele>74</ele>
        <time>2023-01-10T09:18:52Z</time>
      </trkpt>
      <trkpt lat="49.03929" lon="1.82875">
        <ele>77</ele>
        <time>2023-01-10T09:20:16Z</time>
      </trkpt>
      <trkpt lat="49.03961" lon="1.82795">
        <ele>78</ele>
        <time>2023-01-10T09:21:38Z</time>
      </trkpt>
      <trkpt lat="49.04" lon="1.8264">
        <ele>83</ele>
        <time>2023-01-10T09:24:04Z</time>
      </trkpt>
      <trkpt lat="49.04024" lon="1.82566">
        <ele>83</ele>
        <time>2023-01-10T09:25:16Z</time>
      </trkpt>
      <trkpt lat="49.04052" lon="1.8251">
        <ele>83</ele>
        <time>2023-01-10T09:26:17Z</time>
      </trkpt>
      <trkpt lat="49.04194" lon="1.82451">
        <ele>86</ele>
        <time>2023-01-10T09:29:34Z</time>
      </trkpt>
      <trkpt lat="49.04332" lon="1.82417">
        <ele>87</ele>
        <time>2023-01-10T09:32:40Z</time>
      </trkpt>
      <trkpt lat="49.04426" lon="1.82386">
        <ele>89</ele>
        <time>2023-01-10T09:34:49Z</time>
      </trkpt>
      <trkpt lat="49.04441" lon="1.82496">
        <ele>81</ele>
        <time>2023-01-10T09:36:27Z</time>
      </trkpt>
      <trkpt lat="49.04456" lon="1.82606">
        <ele>79</ele>
        <time>2023-01-10T09:38:05Z</time>
      </trkpt>
      <trkpt lat="49.04479" lon="1.82594">
        <ele>80</ele>
        <time>2023-01-10T09:38:38Z</time>
      </trkpt>
      <trkpt lat="49.04504" lon="1.82589">
        <ele>80</ele>
        <time>2023-01-10T09:39:11Z</time>
      </trkpt>
      <trkpt lat="49.0451" lon="1.8258">
        <ele>80</ele>
        <time>2023-01-10T09:39:23Z</time>
      </trkpt>
      <trkpt lat="49.04519" lon="1.82572">
        <ele>80</ele>
        <time>2023-01-10T09:39:37Z</time>
      </trkpt>
      <trkpt lat="49.04536" lon="1.82575">
        <ele>80</ele>
        <time>2023-01-10T09:39:59Z</time>
      </trkpt>
      <trkpt lat="49.04547" lon="1.82568">
        <ele>80</ele>
        <time>2023-01-10T09:40:15Z</time>
      </trkpt>
      <trkpt lat="49.04553" lon="1.82552">
        <ele>81</ele>
        <time>2023-01-10T09:40:31Z</time>
      </trkpt>
      <trkpt lat="49.04573" lon="1.82541">
        <ele>81</ele>
        <time>2023-01-10T09:41:00Z</time>
      </trkpt>
      <trkpt lat="49.04592" lon="1.82538">
        <ele>82</ele>
        <time>2023-01-10T09:41:25Z</time>
      </trkpt>
      <trkpt lat="49.04598" lon="1.82473">
        <ele>85</ele>
        <time>2023-01-10T09:42:23Z</time>
      </trkpt>
      <trkpt lat="49.04605" lon="1.82406">
        <ele>89</ele>
        <time>2023-01-10T09:43:22Z</time>
      </trkpt>
      <trkpt lat="49.0461" lon="1.82339">
        <ele>91</ele>
        <time>2023-01-10T09:44:21Z</time>
      </trkpt>
      <trkpt lat="49.04604" lon="1.82307">
        <ele>93</ele>
        <time>2023-01-10T09:44:50Z</time>
      </trkpt>
      <trkpt lat="49.04581" lon="1.82248">
        <ele>97</ele>
        <time>2023-01-10T09:45:50Z</time>
      </trkpt>
      <trkpt lat="49.04577" lon="1.82224">
        <ele>100</ele>
        <time>2023-01-10T09:46:12Z</time>
      </trkpt>
      <trkpt lat="49.04594" lon="1.82163">
        <ele>104</ele>
        <time>2023-01-10T09:47:10Z</time>
      </trkpt>
      <trkpt lat="49.0459" lon="1.82116">
        <ele>106</ele>
        <time>2023-01-10T09:47:51Z</time>
      </trkpt>
      <trkpt lat="49.04585" lon="1.82085">
        <ele>107</ele>
        <time>2023-01-10T09:48:19Z</time>
      </trkpt>
      <trkpt lat="49.046" lon="1.81988">
        <ele>110</ele>
        <time>2023-01-10T09:49:46Z</time>
      </trkpt>
      <trkpt lat="49.04623" lon="1.81883">
        <ele>113</ele>
        <time>2023-01-10T09:51:23Z</time>
      </trkpt>
      <trkpt lat="49.04634" lon="1.81805">
        <ele>116</ele>
        <time>2023-01-10T09:52:33Z</time>
      </trkpt>
      <trkpt lat="49.04634" lon="1.81759">
        <ele>118</ele>
        <time>2023-01-10T09:53:13Z</time>
      </trkpt>
      <trkpt lat="49.04619" lon="1.81671">
        <ele>125</ele>
        <time>2023-01-10T09:54:33Z</time>
      </trkpt>
      <trkpt lat="49.04601" lon="1.81599">
        <ele>129</ele>
        <time>2023-01-10T09:55:40Z</time>
      </trkpt>
      <trkpt lat="49.04583" lon="1.81528">
        <ele>134</ele>
        <time>2023-01-10T09:56:47Z</time>
      </trkpt>
      <trkpt lat="49.04586" lon="1.81458">
        <ele>138</ele>
        <time>2023-01-10T09:57:48Z</time>
      </trkpt>
      <trkpt lat="49.04589" lon="1.81402">
        <ele>141</ele>
        <time>2023-01-10T09:58:37Z</time>
      </trkpt>
      <trkpt lat="49.04604" lon="1.81349">
        <ele>145</ele>
        <time>2023-01-10T09:59:28Z</time>
      </trkpt>
      <trkpt lat="49.04622" lon="1.81288">
        <ele>148</ele>
        <time>2023-01-10T10:00:26Z</time>
      </trkpt>
      <trkpt lat="49.04611" lon="1.81264">
        <ele>150</ele>
        <time>2023-01-10T10:00:52Z</time>
      </trkpt>
      <trkpt lat="49.04609" lon="1.8124">
        <ele>150</ele>
        <time>2023-01-10T10:01:13Z</time>
      </trkpt>
      <trkpt lat="49.04617" lon="1.81197">
        <ele>151</ele>
        <time>2023-01-10T10:01:52Z</time>
      </trkpt>
      <trkpt lat="49.04662" lon="1.81144">
        <ele>154</ele>
        <time>2023-01-10T10:03:08Z</time>
      </trkpt>
      <trkpt lat="49.04678" lon="1.81081">
        <ele>157</ele>
        <time>2023-01-10T10:04:07Z</time>
      </trkpt>
      <trkpt lat="49.04698" lon="1.81025">
        <ele>160</ele>
        <time>2023-01-10T10:05:03Z</time>
      </trkpt>
      <trkpt lat="49.0474" lon="1.80971">
        <ele>164</ele>
        <time>2023-01-10T10:06:16Z</time>
      </trkpt>
      <trkpt lat="49.04765" lon="1.80917">
        <ele>168</ele>
        <time>2023-01-10T10:07:14Z</time>
      </trkpt>
      <trkpt lat="49.04839" lon="1.808">
        <ele>173</ele>
        <time>2023-01-10T10:09:36Z</time>
      </trkpt>
      <trkpt lat="49.04882" lon="1.80735">
        <ele>171</ele>
        <time>2023-01-10T10:10:57Z</time>
      </trkpt>
      <trkpt lat="49.04963" lon="1.80684">
        <ele>166</ele>
        <time>2023-01-10T10:12:54Z</time>
      </trkpt>
      <trkpt lat="49.05045" lon="1.80621">
        <ele>162</ele>
        <time>2023-01-10T10:14:56Z</time>
      </trkpt>
      <trkpt lat="49.05088" lon="1.80547">
        <ele>160</ele>
        <time>2023-01-10T10:16:23Z</time>
      </trkpt>
      <trkpt lat="49.05133" lon="1.80479">
        <ele>159</ele>
        <time>2023-01-10T10:17:47Z</time>
      </trkpt>
      <trkpt lat="49.05185" lon="1.80414">
        <ele>158</ele>
        <time>2023-01-10T10:19:17Z</time>
      </trkpt>
      <trkpt lat="49.05215" lon="1.80394">
        <ele>156</ele>
        <time>2023-01-10T10:20:01Z</time>
      </trkpt>
      <trkpt lat="49.05349" lon="1.80508">
        <ele>155</ele>
        <time>2023-01-10T10:23:26Z</time>
      </trkpt>
      <trkpt lat="49.0542" lon="1.80656">
        <ele>155</ele>
        <time>2023-01-10T10:26:06Z</time>
      </trkpt>
      <trkpt lat="49.05483" lon="1.80773">
        <ele>152</ele>
        <time>2023-01-10T10:28:18Z</time>
      </trkpt>
      <trkpt lat="49.0556" lon="1.80932">
        <ele>142</ele>
        <time>2023-01-10T10:31:11Z</time>
      </trkpt>
      <trkpt lat="49.05701" lon="1.81095">
        <ele>120</ele>
        <time>2023-01-10T10:35:07Z</time>
      </trkpt>
      <trkpt lat="49.05844" lon="1.81248">
        <ele>128</ele>
        <time>2023-01-10T10:39:00Z</time>
      </trkpt>
      <trkpt lat="49.05908" lon="1.81376">
        <ele>137</ele>
        <time>2023-01-10T10:41:21Z</time>
      </trkpt>
      <trkpt lat="49.05913" lon="1.81428">
        <ele>140</ele>
        <time>2023-01-10T10:42:07Z</time>
      </trkpt>
      <trkpt lat="49.05923" lon="1.81528">
        <ele>146</ele>
        <time>2023-01-10T10:43:36Z</time>
      </trkpt>
      <trkpt lat="49.05947" lon="1.81582">
        <ele>150</ele>
        <time>2023-01-10T10:44:33Z</time>
      </trkpt>
      <trkpt lat="49.05937" lon="1.81643">
        <ele>151</ele>
        <time>2023-01-10T10:45:28Z</time>
      </trkpt>
      <trkpt lat="49.05933" lon="1.81707">
        <ele>150</ele>
        <time>2023-01-10T10:46:24Z</time>
      </trkpt>
      <trkpt lat="49.05947" lon="1.81771">
        <ele>148</ele>
        <time>2023-01-10T10:47:23Z</time>
      </trkpt>
      <trkpt lat="49.05945" lon="1.81831">
        <ele>144</ele>
        <time>2023-01-10T10:48:15Z</time>
      </trkpt>
      <trkpt lat="49.06012" lon="1.81865">
        <ele>144</ele>
        <time>2023-01-10T10:49:50Z</time>
      </trkpt>
      <trkpt lat="49.06072" lon="1.81892">
        <ele>141</ele>
        <time>2023-01-10T10:51:13Z</time>
      </trkpt>
      <trkpt lat="49.06094" lon="1.81944">
        <ele>138</ele>
        <time>2023-01-10T10:52:07Z</time>
      </trkpt>
      <trkpt lat="49.06116" lon="1.82135">
        <ele>127</ele>
        <time>2023-01-10T10:54:57Z</time>
      </trkpt>
      <trkpt lat="49.06114" lon="1.82256">
        <ele>121</ele>
        <time>2023-01-10T10:56:43Z</time>
      </trkpt>
      <trkpt lat="49.06102" lon="1.82399">
        <ele>119</ele>
        <time>2023-01-10T10:58:49Z</time>
      </trkpt>
      <trkpt lat="49.0609" lon="1.82544">
        <ele>116</ele>
        <time>2023-01-10T11:00:56Z</time>
      </trkpt>
      <trkpt lat="49.0609" lon="1.82693">
        <ele>112</ele>
        <time>2023-01-10T11:03:07Z</time>
      </trkpt>
      <trkpt lat="49.06096" lon="1.82857">
        <ele>109</ele>
        <time>2023-01-10T11:05:30Z</time>
      </trkpt>
      <trkpt lat="49.06116" lon="1.83006">
        <ele>108</ele>
        <time>2023-01-10T11:07:43Z</time>
      </trkpt>
      <trkpt lat="49.06128" lon="1.8316">
        <ele>114</ele>
        <time>2023-01-10T11:09:59Z</time>
      </trkpt>
      <trkpt lat="49.0614" lon="1.8333">
        <ele>117</ele>
        <time>2023-01-10T11:12:28Z</time>
      </trkpt>
      <trkpt lat="49.06152" lon="1.835">
        <ele>118</ele>
        <time>2023-01-10T11:14:58Z</time>
      </trkpt>
      <trkpt lat="49.06163" lon="1.8367">
        <ele>121</ele>
        <time>2023-01-10T11:17:27Z</time>
      </trkpt>
      <trkpt lat="49.06175" lon="1.83776">
        <ele>129</ele>
        <time>2023-01-10T11:19:01Z</time>
      </trkpt>
      <trkpt lat="49.06215" lon="1.83889">
        <ele>143</ele>
        <time>2023-01-10T11:20:54Z</time>
      </trkpt>
      <trkpt lat="49.06221" lon="1.84031">
        <ele>153</ele>
        <time>2023-01-10T11:22:58Z</time>
      </trkpt>
      <trkpt lat="49.06226" lon="1.84177">
        <ele>161</ele>
        <time>2023-01-10T11:25:06Z</time>
      </trkpt>
      <trkpt lat="49.06189" lon="1.8429">
        <ele>166</ele>
        <time>2023-01-10T11:26:56Z</time>
      </trkpt>
      <trkpt lat="49.062" lon="1.84389">
        <ele>168</ele>
        <time>2023-01-10T11:28:24Z</time>
      </trkpt>
      <trkpt lat="49.06196" lon="1.84457">
        <ele>167</ele>
        <time>2023-01-10T11:29:24Z</time>
      </trkpt>
      <trkpt lat="49.062" lon="1.84504">
        <ele>165</ele>
        <time>2023-01-10T11:30:05Z</time>
      </trkpt>
      <trkpt lat="49.06177" lon="1.84508">
        <ele>167</ele>
        <time>2023-01-10T11:30:36Z</time>
      </trkpt>
      <trkpt lat="49.06155" lon="1.84528">
        <ele>168</ele>
        <time>2023-01-10T11:31:10Z</time>
      </trkpt>
      <trkpt lat="49.06129" lon="1.84589">
        <ele>169</ele>
        <time>2023-01-10T11:32:14Z</time>
      </trkpt>
      <trkpt lat="49.061" lon="1.8465">
        <ele>167</ele>
        <time>2023-01-10T11:33:20Z</time>
      </trkpt>
      <trkpt lat="49.06075" lon="1.8467">
        <ele>167</ele>
        <time>2023-01-10T11:33:58Z</time>
      </trkpt>
      <trkpt lat="49.06042" lon="1.84701">
        <ele>167</ele>
        <time>2023-01-10T11:34:49Z</time>
      </trkpt>
      <trkpt lat="49.05983" lon="1.84843">
        <ele>157</ele>
        <time>2023-01-10T11:37:16Z</time>
      </trkpt>
      <trkpt lat="49.05978" lon="1.84892">
        <ele>153</ele>
        <time>2023-01-10T11:38:00Z</time>
      </trkpt>
      <trkpt lat="49.05997" lon="1.84943">
        <ele>151</ele>
        <time>2023-01-10T11:38:51Z</time>
      </trkpt>
      <trkpt lat="49.06007" lon="1.84997">
        <ele>147</ele>
        <time>2023-01-10T11:39:40Z</time>
      </trkpt>
      <trkpt lat="49.06054" lon="1.85105">
        <ele>141</ele>
        <time>2023-01-10T11:41:33Z</time>
      </trkpt>
      <trkpt lat="49.06107" lon="1.85221">
        <ele>135</ele>
        <time>2023-01-10T11:43:37Z</time>
      </trkpt>
      <trkpt lat="49.06162" lon="1.85334">
        <ele>129</ele>
        <time>2023-01-10T11:45:40Z</time>
      </trkpt>
      <trkpt lat="49.06215" lon="1.85455">
        <ele>126</ele>
        <time>2023-01-10T11:47:47Z</time>
      </trkpt>
      <trkpt lat="49.06262" lon="1.85562">
        <ele>132</ele>
        <time>2023-01-10T11:49:40Z</time>
      </trkpt>
      <trkpt lat="49.06252" lon="1.85704">
        <ele>136</ele>
        <time>2023-01-10T11:51:45Z</time>
      </trkpt>
      <trkpt lat="49.0628" lon="1.85854">
        <ele>140</ele>
        <time>2023-01-10T11:54:01Z</time>
      </trkpt>
      <trkpt lat="49.06306" lon="1.85931">
        <ele>146</ele>
        <time>2023-01-10T11:55:17Z</time>
      </trkpt>
      <trkpt lat="49.06408" lon="1.86045">
        <ele>155</ele>
        <time>2023-01-10T11:58:06Z</time>
      </trkpt>
      <trkpt lat="49.06435" lon="1.86069">
        <ele>154</ele>
        <time>2023-01-10T11:58:48Z</time>
      </trkpt>
      <trkpt lat="49.06483" lon="1.86162">
        <ele>151</ele>
        <time>2023-01-10T12:00:31Z</time>
      </trkpt>
      <trkpt lat="49.06488" lon="1.86289">
        <ele>146</ele>
        <time>2023-01-10T12:02:22Z</time>
      </trkpt>
      <trkpt lat="49.06513" lon="1.86404">
        <ele>140</ele>
        <time>2023-01-10T12:04:08Z</time>
      </trkpt>
      <trkpt lat="49.06523" lon="1.86505">
        <ele>132</ele>
        <time>2023-01-10T12:05:38Z</time>
      </trkpt>
      <trkpt lat="49.06545" lon="1.8658">
        <ele>125</ele>
        <time>2023-01-10T12:06:49Z</time>
      </trkpt>
      <trkpt lat="49.06525" lon="1.86638">
        <ele>122</ele>
        <time>2023-01-10T12:07:47Z</time>
      </trkpt>
      <trkpt lat="49.06531" lon="1.86693">
        <ele>121</ele>
        <time>2023-01-10T12:08:35Z</time>
      </trkpt>
      <trkpt lat="49.06456" lon="1.86838">
        <ele>116</ele>
        <time>2023-01-10T12:11:17Z</time>
      </trkpt>
      <trkpt lat="49.0635" lon="1.86881">
        <ele>115</ele>
        <time>2023-01-10T12:13:43Z</time>
      </trkpt>
      <trkpt lat="49.06317" lon="1.86896">
        <ele>114</ele>
        <time>2023-01-10T12:14:29Z</time>
      </trkpt>
      <trkpt lat="49.06313" lon="1.86957">
        <ele>112</ele>
        <time>2023-01-10T12:15:23Z</time>
      </trkpt>
      <trkpt lat="49.06287" lon="1.87039">
        <ele>109</ele>
        <time>2023-01-10T12:16:43Z</time>
      </trkpt>
      <trkpt lat="49.06241" lon="1.87124">
        <ele>107</ele>
        <time>2023-01-10T12:18:19Z</time>
      </trkpt>
      <trkpt lat="49.06231" lon="1.87251">
        <ele>107</ele>
        <time>2023-01-10T12:20:11Z</time>
      </trkpt>
      <trkpt lat="49.06225" lon="1.87385">
        <ele>108</ele>
        <time>2023-01-10T12:22:08Z</time>
      </trkpt>
      <trkpt lat="49.06221" lon="1.87573">
        <ele>113</ele>
        <time>2023-01-10T12:24:53Z</time>
      </trkpt>
      <trkpt lat="49.06195" lon="1.87731">
        <ele>116</ele>
        <time>2023-01-10T12:27:15Z</time>
      </trkpt>
      <trkpt lat="49.06146" lon="1.87864">
        <ele>116</ele>
        <time>2023-01-10T12:29:29Z</time>
      </trkpt>
      <trkpt lat="49.0608" lon="1.88016">
        <ele>114</ele>
        <time>2023-01-10T12:32:08Z</time>
      </trkpt>
      <trkpt lat="49.06046" lon="1.88098">
        <ele>111</ele>
        <time>2023-01-10T12:33:33Z</time>
      </trkpt>
      <trkpt lat="49.06018" lon="1.88198">
        <ele>108</ele>
        <time>2023-01-10T12:35:08Z</time>
      </trkpt>
      <trkpt lat="49.05887" lon="1.88404">
        <ele>102</ele>
        <time>2023-01-10T12:39:19Z</time>
      </trkpt>
      <trkpt lat="49.05632" lon="1.8872">
        <ele>99</ele>
        <time>2023-01-10T12:46:37Z</time>
      </trkpt>
      <trkpt lat="49.05548" lon="1.88978">
        <ele>99</ele>
        <time>2023-01-10T12:50:49Z</time>
      </trkpt>
      <trkpt lat="49.05491" lon="1.89158">
        <ele>96</ele>
        <time>2023-01-10T12:53:44Z</time>
      </trkpt>
      <trkpt lat="49.05441" lon="1.89364">
        <ele>100</ele>
        <time>2023-01-10T12:56:56Z</time>
      </trkpt>
      <trkpt lat="49.0534" lon="1.89621">
        <ele>102</ele>
        <time>2023-01-10T13:01:18Z</time>
      </trkpt>
      <trkpt lat="49.05199" lon="1.89973">
        <ele>104</ele>
        <time>2023-01-10T13:07:19Z</time>
      </trkpt>
      <trkpt lat="49.05075" lon="1.90239">
        <ele>111</ele>
        <time>2023-01-10T13:12:05Z</time>
      </trkpt>
      <trkpt lat="49.05109" lon="1.90643">
        <ele>110</ele>
        <time>2023-01-10T13:18:01Z</time>
      </trkpt>
      <trkpt lat="49.05193" lon="1.909">
        <ele>103</ele>
        <time>2023-01-10T13:22:12Z</time>
      </trkpt>
      <trkpt lat="49.05205" lon="1.91141">
        <ele>100</ele>
        <time>2023-01-10T13:25:43Z</time>
      </trkpt>
      <trkpt lat="49.05323" lon="1.91707">
        <ele>96</ele>
        <time>2023-01-10T13:34:23Z</time>
      </trkpt>
      <trkpt lat="49.05514" lon="1.91853">
        <ele>103</ele>
        <time>2023-01-10T13:39:08Z</time>
      </trkpt>
      <trkpt lat="49.05677" lon="1.91947">
        <ele>105</ele>
        <time>2023-01-10T13:43:00Z</time>
      </trkpt>
      <trkpt lat="49.05604" lon="1.92078">
        <ele>105</ele>
        <time>2023-01-10T13:45:31Z</time>
      </trkpt>
      <trkpt lat="49.05503" lon="1.92287">
        <ele>100</ele>
        <time>2023-01-10T13:49:18Z</time>
      </trkpt>
      <trkpt lat="49.05547" lon="1.92404">
        <ele>98</ele>
        <time>2023-01-10T13:51:16Z</time>
      </trkpt>
      <trkpt lat="49.056" lon="1.92547">
        <ele>88</ele>
        <time>2023-01-10T13:53:39Z</time>
      </trkpt>
      <trkpt lat="49.05707" lon="1.9268">
        <ele>71</ele>
        <time>2023-01-10T13:56:44Z</time>
      </trkpt>
      <trkpt lat="49.05854" lon="1.92864">
        <ele>65</ele>
        <time>2023-01-10T14:00:57Z</time>
      </trkpt>
      <trkpt lat="49.05938" lon="1.93022">
        <ele>62</ele>
        <time>2023-01-10T14:03:55Z</time>
      </trkpt>
      <trkpt lat="49.05955" lon="1.93119">
        <ele>59</ele>
        <time>2023-01-10T14:05:23Z</time>
      </trkpt>
      <trkpt lat="49.05978" lon="1.93292">
        <ele>51</ele>
        <time>2023-01-10T14:07:57Z</time>
      </trkpt>
      <trkpt lat="49.05965" lon="1.9341">
        <ele>52</ele>
        <time>2023-01-10T14:09:42Z</time>
      </trkpt>
      <trkpt lat="49.05831" lon="1.93466">
        <ele>53</ele>
        <time>2023-01-10T14:12:47Z</time>
      </trkpt>
      <trkpt lat="49.05704" lon="1.93583">
        <ele>52</ele>
        <time>2023-01-10T14:16:05Z</time>
      </trkpt>
      <trkpt lat="49.05617" lon="1.93685">
        <ele>52</ele>
        <time>2023-01-10T14:18:32Z</time>
      </trkpt>
      <trkpt lat="49.055" lon="1.93884">
        <ele>49</ele>
        <time>2023-01-10T14:22:26Z</time>
      </trkpt>
      <trkpt lat="49.05433" lon="1.94058">
        <ele>48</ele>
        <time>2023-01-10T14:25:22Z</time>
      </trkpt>
      <trkpt lat="49.05386" lon="1.94231">
        <ele>49</ele>
        <time>2023-01-10T14:28:06Z</time>
      </trkpt>
      <trkpt lat="49.05356" lon="1.94405">
        <ele>49</ele>
        <time>2023-01-10T14:30:43Z</time>
      </trkpt>
      <trkpt lat="49.05264" lon="1.94592">
        <ele>51</ele>
        <time>2023-01-10T14:34:08Z</time>
      </trkpt>
      <trkpt lat="49.05245" lon="1.94632">
        <ele>50</ele>
        <time>2023-01-10T14:34:51Z</time>
      </trkpt>
      <trkpt lat="49.05217" lon="1.94686">
        <ele>49</ele>
        <time>2023-01-10T14:35:51Z</time>
      </trkpt>
      <trkpt lat="49.05189" lon="1.94739">
        <ele>48</ele>
        <time>2023-01-10T14:36:51Z</time>
      </trkpt>
      <trkpt lat="49.05141" lon="1.9478">
        <ele>46</ele>
        <time>2023-01-10T14:38:04Z</time>
      </trkpt>
      <trkpt lat="49.05084" lon="1.94877">
        <ele>46</ele>
        <time>2023-01-10T14:39:58Z</time>
      </trkpt>
      <trkpt lat="49.05062" lon="1.94851">
        <ele>46</ele>
        <time>2023-01-10T14:40:35Z</time>
      </trkpt>
      <trkpt lat="49.05029" lon="1.94879">
        <ele>47</ele>
        <time>2023-01-10T14:41:26Z</time>
      </trkpt>
      <trkpt lat="49.04983" lon="1.94919">
        <ele>47</ele>
        <time>2023-01-10T14:42:36Z</time>
      </trkpt>
      <trkpt lat="49.04934" lon="1.9498">
        <ele>46</ele>
        <time>2023-01-10T14:44:01Z</time>
      </trkpt>
      <trkpt lat="49.04882" lon="1.95045">
        <ele>46</ele>
        <time>2023-01-10T14:45:30Z</time>
      </trkpt>
      <trkpt lat="49.0485" lon="1.95094">
        <ele>46</ele>
        <time>2023-01-10T14:46:31Z</time>
      </trkpt>
      <trkpt lat="49.04798" lon="1.95121">
        <ele>45</ele>
        <time>2023-01-10T14:47:44Z</time>
      </trkpt>
      <trkpt lat="49.04757" lon="1.95105">
        <ele>44</ele>
        <time>2023-01-10T14:48:41Z</time>
      </trkpt>
      <trkpt lat="49.04708" lon="1.95103">
        <ele>45</ele>
        <time>2023-01-10T14:49:46Z</time>
      </trkpt>
      <trkpt lat="49.04674" lon="1.95105">
        <ele>46</ele>
        <time>2023-01-10T14:50:31Z</time>
      </trkpt>
      <trkpt lat="49.0464" lon="1.9509">
        <ele>47</ele>
        <time>2023-01-10T14:51:19Z</time>
      </trkpt>
      <trkpt lat="49.0459" lon="1.95053">
        <ele>47</ele>
        <time>2023-01-10T14:52:33Z</time>
      </trkpt>
      <trkpt lat="49.04558" lon="1.95029">
        <ele>47</ele>
        <time>2023-01-10T14:53:20Z</time>
      </trkpt>
      <trkpt lat="49.04518" lon="1.94879">
        <ele>46</ele>
        <time>2023-01-10T14:55:42Z</time>
      </trkpt>
      <trkpt lat="49.04462" lon="1.94681">
        <ele>47</ele>
        <time>2023-01-10T14:58:51Z</time>
      </trkpt>
      <trkpt lat="49.04408" lon="1.94471">
        <ele>46</ele>
        <time>2023-01-10T15:02:08Z</time>
      </trkpt>
      <trkpt lat="49.04374" lon="1.94342">
        <ele>46</ele>
        <time>2023-01-10T15:04:10Z</time>
      </trkpt>
      <trkpt lat="49.0437" lon="1.94296">
        <ele>47</ele>
        <time>2023-01-10T15:04:50Z</time>
      </trkpt>
      <trkpt lat="49.04347" lon="1.94283">
        <ele>46</ele>
        <time>2023-01-10T15:05:23Z</time>
      </trkpt>
      <trkpt lat="49.04312" lon="1.94276">
        <ele>46</ele>
        <time>2023-01-10T15:06:10Z</time>
      </trkpt>
      <trkpt lat="49.04249" lon="1.94284">
        <ele>47</ele>
        <time>2023-01-10T15:07:34Z</time>
      </trkpt>
      <trkpt lat="49.04189" lon="1.94305">
        <ele>45</ele>
        <time>2023-01-10T15:08:57Z</time>
      </trkpt>
      <trkpt lat="49.04159" lon="1.94299">
        <ele>45</ele>
        <time>2023-01-10T15:09:37Z</time>
      </trkpt>
      <trkpt lat="49.04108" lon="1.94244">
        <ele>46</ele>
        <time>2023-01-10T15:11:00Z</time>
      </trkpt>
      <trkpt lat="49.04076" lon="1.94182">
        <ele>48</ele>
        <time>2023-01-10T15:12:09Z</time>
      </trkpt>
      <trkpt lat="49.04053" lon="1.94143">
        <ele>50</ele>
        <time>2023-01-10T15:12:55Z</time>
      </trkpt>
      <trkpt lat="49.04067" lon="1.94096">
        <ele>53</ele>
        <time>2023-01-10T15:13:40Z</time>
      </trkpt>
      <trkpt lat="49.04065" lon="1.94038">
        <ele>56</ele>
        <time>2023-01-10T15:14:31Z</time>
      </trkpt>
      <trkpt lat="49.04071" lon="1.93964">
        <ele>60</ele>
        <time>2023-01-10T15:15:36Z</time>
      </trkpt>
      <trkpt lat="49.04083" lon="1.93914">
        <ele>64</ele>
        <time>2023-01-10T15:16:23Z</time>
      </trkpt>
      <trkpt lat="49.04096" lon="1.93858">
        <ele>69</ele>
        <time>2023-01-10T15:17:15Z</time>
      </trkpt>
      <trkpt lat="49.04105" lon="1.93798">
        <ele>73</ele>
        <time>2023-01-10T15:18:09Z</time>
      </trkpt>
      <trkpt lat="49.04123" lon="1.93726">
        <ele>79</ele>
        <time>2023-01-10T15:19:16Z</time>
      </trkpt>
      <trkpt lat="49.04138" lon="1.93654">
        <ele>82</ele>
        <time>2023-01-10T15:20:22Z</time>
      </trkpt>
      <trkpt lat="49.04109" lon="1.93618">
        <ele>82</ele>
        <time>2023-01-10T15:21:12Z</time>
      </trkpt>
      <trkpt lat="49.04069" lon="1.93548">
        <ele>84</ele>
        <time>2023-01-10T15:22:33Z</time>
      </trkpt>
      <trkpt lat="49.03994" lon="1.9343">
        <ele>89</ele>
        <time>2023-01-10T15:24:57Z</time>
      </trkpt>
      <trkpt lat="49.03942" lon="1.93337">
        <ele>91</ele>
        <time>2023-01-10T15:26:44Z</time>
      </trkpt>
      <trkpt lat="49.03902" lon="1.93221">
        <ele>94</ele>
        <time>2023-01-10T15:28:39Z</time>
      </trkpt>
      <trkpt lat="49.03863" lon="1.93102">
        <ele>95</ele>
        <time>2023-01-10T15:30:35Z</time>
      </trkpt>
      <trkpt lat="49.03838" lon="1.92943">
        <ele>99</ele>
        <time>2023-01-10T15:32:58Z</time>
      </trkpt>
      <trkpt lat="49.03817" lon="1.92815">
        <ele>100</ele>
        <time>2023-01-10T15:34:54Z</time>
      </trkpt>
      <trkpt lat="49.03808" lon="1.92732">
        <ele>101</ele>
        <time>2023-01-10T15:36:07Z</time>
      </trkpt>
      <trkpt lat="49.03827" lon="1.92535">
        <ele>104</ele>
        <time>2023-01-10T15:39:01Z</time>
      </trkpt>
      <trkpt lat="49.03857" lon="1.9227">
        <ele>111</ele>
        <time>2023-01-10T15:42:57Z</time>
      </trkpt>
      <trkpt lat="49.03883" lon="1.9203">
        <ele>115</ele>
        <time>2023-01-10T15:46:29Z</time>
      </trkpt>
      <trkpt lat="49.03899" lon="1.9192">
        <ele>116</ele>
        <time>2023-01-10T15:48:08Z</time>
      </trkpt>
      <trkpt lat="49.03841" lon="1.91877">
        <ele>117</ele>
        <time>2023-01-10T15:49:34Z</time>
      </trkpt>
      <trkpt lat="49.03756" lon="1.91821">
        <ele>114</ele>
        <time>2023-01-10T15:51:38Z</time>
      </trkpt>
      <trkpt lat="49.03659" lon="1.91738">
        <ele>112</ele>
        <time>2023-01-10T15:54:06Z</time>
      </trkpt>
      <trkpt lat="49.03581" lon="1.91666">
        <ele>110</ele>
        <time>2023-01-10T15:56:08Z</time>
      </trkpt>
      <trkpt lat="49.0351" lon="1.91585">
        <ele>108</ele>
        <time>2023-01-10T15:58:06Z</time>
      </trkpt>
      <trkpt lat="49.03657" lon="1.9147">
        <ele>112</ele>
        <time>2023-01-10T16:01:47Z</time>
      </trkpt>
      <trkpt lat="49.03777" lon="1.91072">
        <ele>115</ele>
        <time>2023-01-10T16:08:10Z</time>
      </trkpt>
      <trkpt lat="49.03687" lon="1.91011">
        <ele>112</ele>
        <time>2023-01-10T16:10:21Z</time>
      </trkpt>
      <trkpt lat="49.03623" lon="1.90919">
        <ele>109</ele>
        <time>2023-01-10T16:12:19Z</time>
      </trkpt>
      <trkpt lat="49.0355" lon="1.90766">
        <ele>107</ele>
        <time>2023-01-10T16:15:04Z</time>
      </trkpt>
      <trkpt lat="49.03413" lon="1.90582">
        <ele>99</ele>
        <time>2023-01-10T16:19:08Z</time>
      </trkpt>
      <trkpt lat="49.03319" lon="1.90409">
        <ele>94</ele>
        <time>2023-01-10T16:22:24Z</time>
      </trkpt>
      <trkpt lat="49.03248" lon="1.90286">
        <ele>92</ele>
        <time>2023-01-10T16:24:48Z</time>
      </trkpt>
      <trkpt lat="49.03206" lon="1.90204">
        <ele>90</ele>
        <time>2023-01-10T16:26:19Z</time>
      </trkpt>
      <trkpt lat="49.03248" lon="1.9014">
        <ele>91</ele>
        <time>2023-01-10T16:27:38Z</time>
      </trkpt>
      <trkpt lat="49.03212" lon="1.90099">
        <ele>88</ele>
        <time>2023-01-10T16:28:38Z</time>
      </trkpt>
      <trkpt lat="49.03198" lon="1.90028">
        <ele>88</ele>
        <time>2023-01-10T16:29:43Z</time>
      </trkpt>
      <trkpt lat="49.03176" lon="1.89912">
        <ele>87</ele>
        <time>2023-01-10T16:31:28Z</time>
      </trkpt>
      <trkpt lat="49.03108" lon="1.897">
        <ele>92</ele>
        <time>2023-01-10T16:34:55Z</time>
      </trkpt>
      <trkpt lat="49.03019" lon="1.89497">
        <ele>91</ele>
        <time>2023-01-10T16:38:29Z</time>
      </trkpt>
      <trkpt lat="49.02957" lon="1.89327">
        <ele>90</ele>
        <time>2023-01-10T16:41:19Z</time>
      </trkpt>
      <trkpt lat="49.02915" lon="1.89217">
        <ele>91</ele>
        <time>2023-01-10T16:43:10Z</time>
      </trkpt>
      <trkpt lat="49.0284" lon="1.89017">
        <ele>93</ele>
        <time>2023-01-10T16:46:32Z</time>
      </trkpt>
      <trkpt lat="49.02772" lon="1.88826">
        <ele>91</ele>
        <time>2023-01-10T16:49:42Z</time>
      </trkpt>
      <trkpt lat="49.02762" lon="1.88732">
        <ele>84</ele>
        <time>2023-01-10T16:51:05Z</time>
      </trkpt>
      <trkpt lat="49.02701" lon="1.88757">
        <ele>80</ele>
        <time>2023-01-10T16:52:30Z</time>
      </trkpt>
      <trkpt lat="49.02721" lon="1.88698">
        <ele>78</ele>
        <time>2023-01-10T16:53:28Z</time>
      </trkpt>
      <trkpt lat="49.02737" lon="1.88629">
        <ele>77</ele>
        <time>2023-01-10T16:54:32Z</time>
      </trkpt>
      <trkpt lat="49.02739" lon="1.88586">
        <ele>76</ele>
        <time>2023-01-10T16:55:09Z</time>
      </trkpt>
      <trkpt lat="49.02731" lon="1.88492">
        <ele>76</ele>
        <time>2023-01-10T16:56:32Z</time>
      </trkpt>
      <trkpt lat="49.02718" lon="1.88385">
        <ele>79</ele>
        <time>2023-01-10T16:58:08Z</time>
      </trkpt>
      <trkpt lat="49.02705" lon="1.88284">
        <ele>81</ele>
        <time>2023-01-10T16:59:38Z</time>
      </trkpt>
      <trkpt lat="49.02707" lon="1.88171">
        <ele>82</ele>
        <time>2023-01-10T17:01:17Z</time>
      </trkpt>
      <trkpt lat="49.02726" lon="1.88044">
        <ele>84</ele>
        <time>2023-01-10T17:03:10Z</time>
      </trkpt>
      <trkpt lat="49.0275" lon="1.87916">
        <ele>84</ele>
        <time>2023-01-10T17:05:07Z</time>
      </trkpt>
      <trkpt lat="49.02799" lon="1.87794">
        <ele>84</ele>
        <time>2023-01-10T17:07:12Z</time>
      </trkpt>
      <trkpt lat="49.02841" lon="1.87694">
        <ele>79</ele>
        <time>2023-01-10T17:08:56Z</time>
      </trkpt>
      <trkpt lat="49.02873" lon="1.87642">
        <ele>77</ele>
        <time>2023-01-10T17:09:58Z</time>
      </trkpt>
      <trkpt lat="49.02934" lon="1.87642">
        <ele>83</ele>
        <time>2023-01-10T17:11:20Z</time>
      </trkpt>
      <trkpt lat="49.02997" lon="1.87647">
        <ele>91</ele>
        <time>2023-01-10T17:12:44Z</time>
      </trkpt>
      <trkpt lat="49.03064" lon="1.87662">
        <ele>95</ele>
        <time>2023-01-10T17:14:14Z</time>
      </trkpt>
      <trkpt lat="49.03133" lon="1.87714">
        <ele>95</ele>
        <time>2023-01-10T17:15:57Z</time>
      </trkpt>
      <trkpt lat="49.03171" lon="1.87743">
        <ele>95</ele>
        <time>2023-01-10T17:16:54Z</time>
      </trkpt>
      <trkpt lat="49.03181" lon="1.87726">
        <ele>94</ele>
        <time>2023-01-10T17:17:14Z</time>
      </trkpt>
      <trkpt lat="49.032" lon="1.8772">
        <ele>92</ele>
        <time>2023-01-10T17:17:40Z</time>
      </trkpt>
      <trkpt lat="49.03203" lon="1.87709">
        <ele>91</ele>
        <time>2023-01-10T17:17:50Z</time>
      </trkpt>
      <trkpt lat="49.03199" lon="1.87698">
        <ele>91</ele>
        <time>2023-01-10T17:18:01Z</time>
      </trkpt>
      <trkpt lat="49.03194" lon="1.87678">
        <ele>89</ele>
        <time>2023-01-10T17:18:20Z</time>
      </trkpt>
      <trkpt lat="49.03195" lon="1.87669">
        <ele>88</ele>
        <time>2023-01-10T17:18:28Z</time>
      </trkpt>
      <trkpt lat="49.03204" lon="1.87672">
        <ele>88</ele>
        <time>2023-01-10T17:18:40Z</time>
      </trkpt>
      <trkpt lat="49.03211" lon="1.87665">
        <ele>87</ele>
        <time>2023-01-10T17:18:51Z</time>
      </trkpt>
      <trkpt lat="49.03208" lon="1.87645">
        <ele>86</ele>
        <time>2023-01-10T17:19:09Z</time>
      </trkpt>
      <trkpt lat="49.03214" lon="1.8763">
        <ele>84</ele>
        <time>2023-01-10T17:19:25Z</time>
      </trkpt>
      <trkpt lat="49.03218" lon="1.87604">
        <ele>82</ele>
        <time>2023-01-10T17:19:48Z</time>
      </trkpt>
      <trkpt lat="49.03228" lon="1.87553">
        <ele>78</ele>
        <time>2023-01-10T17:20:35Z</time>
      </trkpt>
      <trkpt lat="49.03239" lon="1.87488">
        <ele>74</ele>
        <time>2023-01-10T17:21:33Z</time>
      </trkpt>
      <trkpt lat="49.03244" lon="1.87448">
        <ele>71</ele>
        <time>2023-01-10T17:22:09Z</time>
      </trkpt>
      <trkpt lat="49.03246" lon="1.87426">
        <ele>69</ele>
        <time>2023-01-10T17:22:28Z</time>
      </trkpt>
      <trkpt lat="49.03242" lon="1.87385">
        <ele>67</ele>
        <time>2023-01-10T17:23:05Z</time>
      </trkpt>
      <trkpt lat="49.03231" lon="1.87347">
        <ele>66</ele>
        <time>2023-01-10T17:23:41Z</time>
      </trkpt>
      <trkpt lat="49.03221" lon="1.87313">
        <ele>65</ele>
        <time>2023-01-10T17:24:14Z</time>
      </trkpt>
      <trkpt lat="49.03218" lon="1.87295">
        <ele>64</ele>
        <time>2023-01-10T17:24:30Z</time>
      </trkpt>
      <trkpt lat="49.03215" lon="1.87252">
        <ele>63</ele>
        <time>2023-01-10T17:25:08Z</time>
      </trkpt>
      <trkpt lat="49.0321" lon="1.8722">
        <ele>61</ele>
        <time>2023-01-10T17:25:36Z</time>
      </trkpt>
      <trkpt lat="49.03202" lon="1.8719">
        <ele>58</ele>
        <time>2023-01-10T17:26:05Z</time>
      </trkpt>
      <trkpt lat="49.03193" lon="1.87126">
        <ele>53</ele>
        <time>2023-01-10T17:27:02Z</time>
      </trkpt>
      <trkpt lat="49.03192" lon="1.87091">
        <ele>52</ele>
        <time>2023-01-10T17:27:33Z</time>
      </trkpt>
      <trkpt lat="49.03195" lon="1.87033">
        <ele>50</ele>
        <time>2023-01-10T17:28:24Z</time>
      </trkpt>
      <trkpt lat="49.03203" lon="1.86992">
        <ele>50</ele>
        <time>2023-01-10T17:29:01Z</time>
      </trkpt>
      <trkpt lat="49.0321" lon="1.86959">
        <ele>49</ele>
        <time>2023-01-10T17:29:31Z</time>
      </trkpt>
      <trkpt lat="49.03214" lon="1.86913">
        <ele>47</ele>
        <time>2023-01-10T17:30:12Z</time>
      </trkpt>
      <trkpt lat="49.03218" lon="1.86892">
        <ele>46</ele>
        <time>2023-01-10T17:30:31Z</time>
      </trkpt>
      <trkpt lat="49.0322" lon="1.86864">
        <ele>45</ele>
        <time>2023-01-10T17:30:56Z</time>
      </trkpt>
      <trkpt lat="49.03224" lon="1.86844">
        <ele>44</ele>
        <time>2023-01-10T17:31:14Z</time>
      </trkpt>
      <trkpt lat="49.03235" lon="1.86757">
        <ele>39</ele>
        <time>2023-01-10T17:32:32Z</time>
      </trkpt>
      <trkpt lat="49.03221" lon="1.86752">
        <ele>39</ele>
        <time>2023-01-10T17:32:51Z</time>
      </trkpt>
      <trkpt lat="49.03265" lon="1.86693">
        <ele>41</ele>
        <time>2023-01-10T17:34:09Z</time>
      </trkpt>
      <trkpt lat="49.0333" lon="1.86642">
        <ele>41</ele>
        <time>2023-01-10T17:35:47Z</time>
      </trkpt>
      <trkpt lat="49.0337" lon="1.86592">
        <ele>41</ele>
        <time>2023-01-10T17:36:56Z</time>
      </trkpt>
      <trkpt lat="49.03406" lon="1.8653">
        <ele>39</ele>
        <time>2023-01-10T17:38:08Z</time>
      </trkpt>
      <trkpt lat="49.03436" lon="1.86544">
        <ele>38</ele>
        <time>2023-01-10T17:38:50Z</time>
      </trkpt>
      <trkpt lat="49.0347" lon="1.86543">
        <ele>39</ele>
        <time>2023-01-10T17:39:35Z</time>
      </trkpt>
      <trkpt lat="49.03489" lon="1.86513">
        <ele>38</ele>
        <time>2023-01-10T17:40:12Z</time>
      </trkpt>
      <trkpt lat="49.03497" lon="1.86457">
        <ele>39</ele>
        <time>2023-01-10T17:41:02Z</time>
      </trkpt>
    </trkseg>
  </trk>
</gpx>